• Join FlightAware (Why Join?)
  • Login
  • US Flag 
07:52PM EST


 

Airport Tracker/Info


-or-


 

Live Flight TrackerFlight Track Log ✈ EJA396 ✈ 03-Aug-2013 ✈ XA89 - KSGR

Flight Track Log - Related Links

Times and Time Zones

All times are in EDT time to prevent confusion due to time zone crossing. See the EJA396 flight status page for this flight to view local times or setup timezone preferences in your user account.

Time Position Orientation Groundspeed Altitude Reporting Facility
EDT Latitude Longitude Course Direction KTS MPH feet Rate Location/Type
07:47PM 28.2172 -99.9469 71° East 175 201 7,100  Level Houston Center
07:48PM 28.2328 -99.8958 71° East 172 198 11,500 3,600 Climbing Houston Center
07:49PM 28.2497 -99.8356 72° East 189 217 14,600 3,300 Climbing Houston Center
07:50PM 28.2731 -99.7564 71° East 242 278 18,300 3,420 Climbing Houston Center
07:51PM 28.3017 -99.6597 71° East 264 304 21,700 2,820 Climbing Houston Center
07:52PM 28.3297 -99.5647 71° East 297 342 24,200 1,560 Climbing Houston Center
07:53PM 28.3611 -99.4558 72° East 336 387 25,000 360 Climbing Houston Center
07:54PM 28.3981 -99.3278 72° East 396 456 25,000 240 Level Houston Center
07:55PM 28.4378 -99.1947 71° East 431 496 25,600 900 Climbing Houston Center
07:56PM 28.4742 -99.0636 72° East 436 502 26,900 1,020 Climbing Houston Center
07:57PM 28.5119 -98.9331 72° East 436 502 27,700 900 Climbing Houston Center
07:58PM 28.5500 -98.7986 72° East 445 512 28,800 600 Climbing Houston Center
07:59PM 28.5894 -98.6636 72° East 448 516 29,000 60 Climbing Houston Center
08:00PM 28.6278 -98.5231 73° East 461 531 29,000  Level Houston Center
08:01PM 28.6686 -98.3814 72° East 452 520 29,000  Level Houston Center
08:02PM 28.7069 -98.2439 72° East 455 524 29,000  Level Houston Center
08:03PM 28.7531 -98.0819 72° East 451 519 29,000  Level Houston Center
08:04PM 28.7900 -97.9450 73° East 453 521 29,000  Level Houston Center
08:05PM 28.8281 -97.8083 72° East 453 521 29,000  Level Houston Center
08:06PM 28.8653 -97.6728 73° East 451 519 29,000  Level Houston Center
08:07PM 28.9033 -97.5358 72° East 454 522 29,000  Level Houston Center
08:08PM 28.9406 -97.4003 73° East 451 519 29,000  Level Houston Center
08:09PM 28.9772 -97.2628 73° East 454 522 29,000  Level Houston Center
08:10PM 29.0142 -97.1275 73° East 451 519 29,000  Level Houston Center
08:11PM 29.0575 -96.9639 73° East 452 520 29,000 -780 Level Houston Center
08:12PM 29.0928 -96.8306 73° East 447 514 27,500 -2,400 Descending Houston Center
08:14PM 29.1289 -96.6992 73° East 440 506 24,200 -3,180 Descending Houston Center
08:15PM 29.1606 -96.5764 74° East 410 472 21,100 -2,940 Descending Houston Center
08:16PM 29.1925 -96.4594 73° East 390 449 18,200 -3,180 Descending Houston Center
08:16PM 29.2122 -96.3906 72° East 373 429 16,300 -3,000 Descending Houston Center
08:17PM 29.2233 -96.3444 75° East 383 441 15,200 -2,040 Descending Houston Center
08:18PM 29.2694 -96.2186 67° East 348 400 13,200 -1,920 Descending Houston Center
08:19PM 29.3239 -96.1325 54° Northeast 336 387 11,300 -1,920 Descending Houston Center
08:20PM 29.3761 -96.0500 54° Northeast 323 372 9,300 -1,980 Descending Houston Center
08:21PM 29.4267 -95.9894 46° Northeast 277 319 7,300 -1,980 Descending Houston Center
08:22PM 29.4789 -95.9333 43° Northeast 259 298 5,300 -1,980 Descending Houston Center
08:23PM 29.5350 -95.8742 43° Northeast 268 308 3,300 -1,620 Descending Houston Center
08:24PM 29.5903 -95.8144 43° Northeast 272 313 2,000 -600 Descending Houston Center
08:25PM 29.6456 -95.7553 43° Northeast 234 269 2,100 -120 Climbing Houston Center
08:26PM 29.6869 -95.7083 45° Northeast 217 250 1,800 -480 Descending Houston Center
08:27PM 29.6819 -95.6669 98° East 164 189 1,200 -660 Descending Houston Center
08:28PM 29.6483 -95.6592 169° South 138 159 500 -720 Descending Houston Center
08:30PM 29.6167 -95.6500 235° Southwest  Level FlightAware Approximate